Time;durP1;ratioP1;P1;durP2;ratioP2;P2;SDS_P1;SDS_P2;PMS_P1;PMS_P2;Temp;Humidity;BMP_temperature;BMP_pressure;BME280_temperature;BME280_humidity;BME280_pressure;Samples;Min_cycle;Max_cycle;Signal;HPM_P1;HPM_P2
2023/03/03 00:00:48;;;;;;;97.68;47.22;;;3.00;99.90;;;;;;5031399;28;20131;-63
2023/03/03 00:03:22;;;;;;;100.20;45.67;;;2.90;99.90;;;;;;5028558;28;20069;-62
2023/03/03 00:05:48;;;;;;;91.20;42.50;;;2.80;99.90;;;;;;5030304;28;20300;-62
2023/03/03 00:08:14;;;;;;;100.43;45.42;;;2.80;99.90;;;;;;5028935;28;20065;-65
2023/03/03 00:10:40;;;;;;;96.00;43.40;;;2.70;99.90;;;;;;5028512;28;20065;-62
2023/03/03 00:13:14;;;;;;;97.47;44.40;;;2.70;99.90;;;;;;5032237;28;20111;-66
2023/03/03 00:15:40;;;;;;;96.10;43.22;;;2.70;99.90;;;;;;5022360;28;20137;-64
2023/03/03 00:28:26;;;;;;;91.25;42.50;;;2.60;99.90;;;;;;5020625;28;20036;-64
2023/03/03 00:30:54;;;;;;;89.18;41.03;;;2.60;99.90;;;;;;5029352;28;20026;-65
2023/03/03 00:33:41;;;;;;;89.43;41.72;;;2.50;99.90;;;;;;5031460;28;20033;-66
2023/03/03 00:36:21;;;;;;;100.93;42.55;;;2.50;99.90;;;;;;5030285;28;20544;-66
2023/03/03 00:38:48;;;;;;;88.28;42.50;;;2.40;99.90;;;;;;5030725;28;20040;-63
2023/03/03 00:41:24;;;;;;;;;;;2.40;99.90;;;;;;5030508;28;20825;-63
2023/03/03 00:43:51;;;;;;;88.65;41.03;;;2.40;99.90;;;;;;5030118;28;19912;-63
2023/03/03 00:46:22;;;;;;;86.65;40.65;;;2.40;99.90;;;;;;5027513;28;20559;-66
2023/03/03 00:48:49;;;;;;;92.40;44.35;;;2.30;99.90;;;;;;5023084;28;20060;-65
2023/03/03 00:51:36;;;;;;;99.07;42.33;;;2.40;99.90;;;;;;5031557;28;20064;-62
2023/03/03 00:54:02;;;;;;;92.57;43.55;;;2.30;99.90;;;;;;5028512;28;20033;-64
2023/03/03 00:56:27;;;;;;;97.03;44.15;;;2.30;99.90;;;;;;5031885;28;20058;-64
2023/03/03 00:58:53;;;;;;;99.53;44.10;;;2.30;99.90;;;;;;5032963;28;20026;-65
2023/03/03 01:01:19;;;;;;;92.05;41.42;;;2.30;99.90;;;;;;5029793;28;20033;-61
2023/03/03 01:03:45;;;;;;;99.15;42.05;;;2.30;99.90;;;;;;5027913;28;20033;-63
2023/03/03 01:06:11;;;;;;;97.55;43.08;;;2.40;99.90;;;;;;5027771;28;20105;-63
2023/03/03 01:08:37;;;;;;;;;;;2.30;99.90;;;;;;5031599;28;20041;-66
2023/03/03 01:11:10;;;;;;;87.82;39.95;;;2.20;99.90;;;;;;5028284;28;19913;-66
2023/03/03 01:13:38;;;;;;;97.85;44.03;;;2.10;99.90;;;;;;5031334;28;20052;-65
2023/03/03 01:16:04;;;;;;;98.25;43.33;;;2.10;99.90;;;;;;5027587;28;20068;-64
2023/03/03 01:18:30;;;;;;;93.57;44.40;;;2.10;99.90;;;;;;5027657;28;20140;-66
2023/03/03 01:20:56;;;;;;;94.15;42.83;;;2.00;99.90;;;;;;5027385;28;20059;-61
2023/03/03 01:23:22;;;;;;;103.67;44.17;;;2.10;99.90;;;;;;5030226;28;20529;-61
2023/03/03 01:25:48;;;;;;;88.47;42.10;;;2.10;99.90;;;;;;5022530;28;20037;-66
2023/03/03 01:28:13;;;;;;;100.70;45.28;;;2.10;99.90;;;;;;5030711;28;20469;-66
2023/03/03 01:30:39;;;;;;;98.20;43.53;;;2.10;99.90;;;;;;5028266;28;20061;-66
2023/03/03 01:33:05;;;;;;;97.67;44.73;;;2.10;99.90;;;;;;5029009;28;20033;-67
2023/03/03 01:35:30;;;;;;;101.50;43.70;;;2.10;99.90;;;;;;5028311;28;20284;-65
2023/03/03 01:37:57;;;;;;;102.40;45.33;;;2.20;99.90;;;;;;5027513;28;20024;-66
2023/03/03 01:40:26;;;;;;;102.65;44.25;;;2.20;99.90;;;;;;5027795;28;20272;-64
2023/03/03 01:42:52;;;;;;;93.03;43.78;;;2.10;99.90;;;;;;5027153;28;20038;-64
2023/03/03 01:45:25;;;;;;;106.53;45.13;;;2.10;99.90;;;;;;5027223;28;20091;-63
2023/03/03 01:48:00;;;;;;;105.40;44.75;;;2.00;99.90;;;;;;5029259;28;20040;-62
2023/03/03 01:50:46;;;;;;;97.40;45.67;;;1.90;99.90;;;;;;5032462;28;20082;-63
2023/03/03 01:53:17;;;;;;;99.38;46.03;;;2.00;99.90;;;;;;5031348;28;20029;-65
2023/03/03 01:55:45;;;;;;;100.95;45.03;;;2.10;99.90;;;;;;5032899;28;20026;-64
2023/03/03 01:58:19;;;;;;;94.50;42.13;;;2.00;99.90;;;;;;5032544;28;20494;-65
2023/03/03 02:00:50;;;;;;;98.03;43.60;;;2.00;99.90;;;;;;5033986;28;20052;-60
2023/03/03 02:03:16;;;;;;;92.82;43.33;;;2.00;99.90;;;;;;5031843;28;20033;-65
2023/03/03 02:05:42;;;;;;;;;;;2.00;99.90;;;;;;5030523;28;20048;-63
2023/03/03 02:08:10;;;;;;;93.28;41.20;;;2.10;99.90;;;;;;5031488;28;19908;-65
2023/03/03 02:10:36;;;;;;;90.95;42.22;;;2.10;99.90;;;;;;5027978;28;20778;-66
2023/03/03 02:13:02;;;;;;;95.07;42.83;;;2.00;99.90;;;;;;5030395;28;20100;-64
2023/03/03 02:15:37;;;;;;;101.80;44.87;;;2.00;99.90;;;;;;5031352;28;20116;-65
2023/03/03 02:18:07;;;;;;;101.85;44.75;;;2.00;99.90;;;;;;5033739;28;20116;-63
2023/03/03 02:20:42;;;;;;;95.30;42.45;;;2.00;99.90;;;;;;5030760;28;20030;-65
2023/03/03 02:23:19;;;;;;;91.97;43.05;;;2.00;99.90;;;;;;5032348;28;20037;-64
2023/03/03 02:25:57;;;;;;;103.57;44.03;;;2.00;99.90;;;;;;5018051;28;20378;-64
2023/03/03 02:28:30;;;;;;;94.28;44.05;;;2.00;99.90;;;;;;5031118;28;20063;-62
2023/03/03 02:30:56;;;;;;;99.50;44.50;;;2.00;99.90;;;;;;5029623;28;20092;-62
2023/03/03 02:33:22;;;;;;;106.32;45.45;;;2.00;99.90;;;;;;5032199;28;20026;-63
2023/03/03 02:35:48;;;;;;;91.07;42.05;;;1.90;99.90;;;;;;5032998;28;20083;-63
2023/03/03 02:38:33;;;;;;;94.68;41.83;;;2.00;99.90;;;;;;5027351;28;20537;-64
2023/03/03 02:41:16;;;;;;;96.72;44.00;;;1.90;99.90;;;;;;5033119;28;20042;-62
2023/03/03 02:44:00;;;;;;;92.63;42.97;;;1.80;99.90;;;;;;5033325;28;20021;-65
2023/03/03 02:46:27;;;;;;;98.07;44.00;;;1.80;99.90;;;;;;5035817;28;20463;-61
2023/03/03 02:48:53;;;;;;;95.38;44.28;;;1.80;99.90;;;;;;5030302;28;20512;-66
2023/03/03 02:51:19;;;;;;;99.80;44.07;;;1.80;99.90;;;;;;5028706;28;20037;-64
2023/03/03 02:53:44;;;;;;;100.20;45.53;;;1.70;99.90;;;;;;5022424;28;20088;-65
2023/03/03 02:56:10;;;;;;;96.63;43.43;;;1.70;99.90;;;;;;5033719;28;20037;-62
2023/03/03 02:58:36;;;;;;;95.43;42.55;;;1.60;99.90;;;;;;5030656;28;20038;-65
2023/03/03 03:01:03;;;;;;;89.20;42.72;;;1.60;99.90;;;;;;5031100;28;20038;-65
2023/03/03 03:03:28;;;;;;;102.13;43.13;;;1.60;99.90;;;;;;5031657;28;20061;-66
2023/03/03 03:05:54;;;;;;;92.13;43.20;;;1.60;99.90;;;;;;5029431;28;20130;-62
2023/03/03 03:08:19;;;;;;;100.83;44.73;;;1.60;99.90;;;;;;5033222;28;20536;-61
2023/03/03 03:10:45;;;;;;;92.10;42.03;;;1.70;99.90;;;;;;5023087;28;20032;-64
2023/03/03 03:13:11;;;;;;;87.93;41.60;;;1.60;99.90;;;;;;5031232;28;20091;-66
2023/03/03 03:15:36;;;;;;;102.23;43.73;;;1.50;99.90;;;;;;5031459;28;20049;-61
2023/03/03 03:18:03;;;;;;;90.03;42.75;;;1.40;99.90;;;;;;5031839;28;20036;-64
2023/03/03 03:20:28;;;;;;;103.88;46.05;;;1.40;99.90;;;;;;5029552;28;20041;-66
2023/03/03 03:22:54;;;;;;;107.33;46.70;;;1.20;99.90;;;;;;5030910;28;20033;-64
2023/03/03 03:25:20;;;;;;;97.43;45.23;;;1.30;99.90;;;;;;5030235;28;20045;-64
2023/03/03 03:27:45;;;;;;;107.82;44.95;;;1.20;99.90;;;;;;5032502;28;20030;-66
2023/03/03 03:30:11;;;;;;;96.30;44.03;;;1.10;99.90;;;;;;5030040;28;20064;-65
2023/03/03 03:32:37;;;;;;;92.97;42.50;;;1.10;99.90;;;;;;5031749;28;20041;-65
2023/03/03 03:35:02;;;;;;;109.50;46.33;;;1.10;99.90;;;;;;5032185;28;20468;-65
2023/03/03 03:37:28;;;;;;;92.13;44.03;;;1.00;99.90;;;;;;5030300;28;20064;-63
2023/03/03 03:39:55;;;;;;;104.63;46.03;;;1.10;99.90;;;;;;5030864;28;20595;-64
2023/03/03 03:42:20;;;;;;;100.50;44.33;;;1.10;99.90;;;;;;5029192;28;20300;-65
2023/03/03 03:44:46;;;;;;;99.45;44.05;;;1.10;99.90;;;;;;5031579;28;20081;-65
2023/03/03 03:47:12;;;;;;;102.03;44.63;;;1.10;99.90;;;;;;5061481;28;20044;-65
2023/03/03 03:49:37;;;;;;;115.47;46.43;;;1.00;99.90;;;;;;5028254;28;20021;-63
2023/03/03 03:52:03;;;;;;;109.17;45.13;;;1.10;99.90;;;;;;5033239;28;20351;-64
2023/03/03 03:54:28;;;;;;;118.05;46.58;;;1.00;99.90;;;;;;5031839;28;20116;-66
2023/03/03 03:56:54;;;;;;;108.40;45.30;;;1.00;99.90;;;;;;5030232;28;20040;-64
2023/03/03 03:59:20;;;;;;;106.10;45.37;;;0.90;99.90;;;;;;5027894;28;20901;-61
2023/03/03 04:01:47;;;;;;;100.07;44.67;;;0.70;99.90;;;;;;5032123;28;20017;-60
2023/03/03 04:04:13;;;;;;;100.53;42.25;;;0.70;99.90;;;;;;5031401;28;20048;-65
2023/03/03 04:06:38;;;;;;;103.07;43.53;;;0.80;99.90;;;;;;5035815;28;20033;-62
2023/03/03 04:09:04;;;;;;;104.93;45.40;;;0.80;99.90;;;;;;5027968;28;20059;-63
2023/03/03 04:11:30;;;;;;;99.53;43.67;;;0.90;99.90;;;;;;5031058;28;20026;-65
2023/03/03 04:13:55;;;;;;;98.07;44.25;;;0.80;99.90;;;;;;5027283;28;20329;-61
2023/03/03 04:16:21;;;;;;;115.60;46.70;;;0.90;99.90;;;;;;5028313;28;20033;-63
2023/03/03 04:18:46;;;;;;;106.33;43.73;;;0.90;99.90;;;;;;5029567;28;20299;-62
2023/03/03 04:21:13;;;;;;;105.53;44.40;;;0.80;99.90;;;;;;5029926;28;20497;-64
2023/03/03 04:23:39;;;;;;;98.38;44.60;;;0.70;99.90;;;;;;5022027;28;20029;-64
2023/03/03 04:26:05;;;;;;;95.47;44.15;;;0.70;99.90;;;;;;5031609;28;20029;-65
2023/03/03 04:28:30;;;;;;;101.70;45.13;;;0.70;99.90;;;;;;5030219;28;20570;-60
2023/03/03 04:30:56;;;;;;;112.87;47.97;;;0.70;99.90;;;;;;5032019;28;20042;-63
2023/03/03 04:33:21;;;;;;;111.03;47.13;;;0.80;99.90;;;;;;5028057;28;20158;-64
2023/03/03 04:35:47;;;;;;;109.00;46.17;;;0.70;99.90;;;;;;5029749;28;20493;-63
2023/03/03 04:38:13;;;;;;;104.27;43.67;;;0.70;99.90;;;;;;5030304;28;20284;-62
2023/03/03 04:40:42;;;;;;;102.70;44.93;;;0.60;99.90;;;;;;5029547;28;20033;-62
2023/03/03 04:43:08;;;;;;;103.82;44.10;;;0.60;99.90;;;;;;5031881;28;20326;-63
2023/03/03 04:45:34;;;;;;;;;;;0.40;99.90;;;;;;5030666;28;20044;-64
2023/03/03 04:47:59;;;;;;;101.97;42.95;;;0.40;99.90;;;;;;5033276;28;19909;-60
2023/03/03 04:50:26;;;;;;;102.10;45.67;;;0.40;99.90;;;;;;5029895;28;20432;-65
2023/03/03 04:52:51;;;;;;;99.63;43.28;;;0.30;99.90;;;;;;5029895;28;20040;-62
2023/03/03 04:55:17;;;;;;;100.07;45.60;;;0.20;99.90;;;;;;5030074;28;20033;-66
2023/03/03 04:57:43;;;;;;;105.47;45.40;;;0.30;99.90;;;;;;5034285;28;20712;-66
2023/03/03 05:00:12;;;;;;;103.95;46.40;;;0.20;99.90;;;;;;5028253;28;20583;-66
2023/03/03 05:02:38;;;;;;;116.85;50.90;;;0.30;99.90;;;;;;5029728;28;20029;-63
2023/03/03 05:05:04;;;;;;;;;;;0.30;99.90;;;;;;5028057;28;20029;-65
2023/03/03 05:07:30;;;;;;;116.25;45.90;;;0.40;99.90;;;;;;5029288;28;19913;-64
2023/03/03 05:09:55;;;;;;;121.10;47.77;;;0.40;99.90;;;;;;5027221;28;20116;-61
2023/03/03 05:12:21;;;;;;;94.75;45.22;;;0.40;99.90;;;;;;5028237;28;20040;-65
2023/03/03 05:14:47;;;;;;;112.07;48.25;;;0.30;99.90;;;;;;5027540;28;20042;-63
2023/03/03 05:17:12;;;;;;;111.65;46.10;;;0.20;99.90;;;;;;5028504;28;20025;-65
2023/03/03 05:19:38;;;;;;;108.77;47.60;;;0.30;99.90;;;;;;5027274;28;20045;-65
2023/03/03 05:22:03;;;;;;;117.65;46.05;;;0.20;99.90;;;;;;5029867;28;20113;-61
2023/03/03 05:24:29;;;;;;;100.20;44.07;;;0.10;99.90;;;;;;5033486;28;20041;-64
2023/03/03 05:26:55;;;;;;;116.67;47.13;;;0.20;99.90;;;;;;5036169;28;20076;-63
2023/03/03 05:29:20;;;;;;;110.50;46.17;;;0.20;99.90;;;;;;5032106;28;20949;-65
2023/03/03 05:31:46;;;;;;;105.30;43.83;;;0.20;99.90;;;;;;5032447;28;20049;-64
2023/03/03 05:34:11;;;;;;;107.43;45.38;;;0.30;99.90;;;;;;5037083;28;20082;-64
2023/03/03 05:36:37;;;;;;;114.83;45.27;;;0.30;99.90;;;;;;5035575;28;20037;-63
2023/03/03 05:39:03;;;;;;;106.47;44.40;;;0.30;99.90;;;;;;5034438;28;20082;-63
2023/03/03 05:41:28;;;;;;;99.85;44.05;;;0.30;99.90;;;;;;5033880;28;20037;-62
2023/03/03 05:43:54;;;;;;;105.25;43.72;;;0.20;99.90;;;;;;5031416;28;20494;-63
2023/03/03 05:46:20;;;;;;;107.23;44.80;;;0.20;99.90;;;;;;5036890;28;20099;-65
2023/03/03 05:48:45;;;;;;;117.63;47.93;;;0.10;99.90;;;;;;5031700;28;20335;-65
2023/03/03 05:51:11;;;;;;;110.65;46.95;;;0.10;99.90;;;;;;5034700;28;20108;-64
2023/03/03 05:53:37;;;;;;;108.03;47.40;;;0.00;99.90;;;;;;5035599;28;20513;-65
2023/03/03 05:56:03;;;;;;;116.83;47.90;;;0.10;99.90;;;;;;5034198;28;20033;-64
2023/03/03 05:58:29;;;;;;;106.80;46.10;;;0.00;99.90;;;;;;5031350;28;20339;-63
2023/03/03 06:00:54;;;;;;;107.65;46.25;;;0.00;99.90;;;;;;5034866;28;20048;-64
2023/03/03 06:03:20;;;;;;;112.60;47.97;;;0.00;99.90;;;;;;5034425;28;20036;-64
2023/03/03 06:05:46;;;;;;;112.70;47.47;;;0.10;99.90;;;;;;5031770;28;20391;-64
2023/03/03 06:08:11;;;;;;;110.82;49.15;;;0.10;99.90;;;;;;5031285;28;20017;-64
2023/03/03 06:10:37;;;;;;;99.35;44.08;;;0.00;99.90;;;;;;5034373;28;20129;-61
2023/03/03 06:13:02;;;;;;;110.00;49.17;;;0.10;99.90;;;;;;5031944;28;20396;-64
2023/03/03 06:15:28;;;;;;;116.22;48.80;;;0.00;99.90;;;;;;5032086;28;20292;-64
2023/03/03 06:17:54;;;;;;;106.53;45.35;;;0.10;99.90;;;;;;5030714;28;20179;-64
2023/03/03 06:20:19;;;;;;;110.28;47.08;;;0.00;99.90;;;;;;5031949;28;20500;-65
2023/03/03 06:22:45;;;;;;;107.63;46.25;;;0.10;99.90;;;;;;5063892;28;20922;-65
2023/03/03 06:25:10;;;;;;;101.20;43.47;;;0.00;99.90;;;;;;5025828;28;20572;-64
2023/03/03 06:27:36;;;;;;;105.55;45.53;;;0.10;99.90;;;;;;5029381;28;20508;-65
2023/03/03 06:30:03;;;;;;;102.32;45.78;;;0.00;99.90;;;;;;5023620;28;20056;-66
2023/03/03 06:32:28;;;;;;;;;;;0.10;99.90;;;;;;5027525;28;20162;-63
2023/03/03 06:34:54;;;;;;;119.15;46.47;;;0.00;99.90;;;;;;5026981;28;20444;-64
2023/03/03 06:37:20;;;;;;;113.85;46.70;;;0.00;99.90;;;;;;5024532;28;20480;-65
2023/03/03 06:39:46;;;;;;;103.30;43.73;;;0.00;99.90;;;;;;5025588;28;20057;-65
2023/03/03 06:42:12;;;;;;;120.37;47.10;;;0.10;99.90;;;;;;5026242;28;20294;-65
2023/03/03 06:44:37;;;;;;;115.28;48.63;;;-0.10;99.90;;;;;;5029537;28;20083;-66
2023/03/03 06:47:03;;;;;;;120.17;48.30;;;0.00;99.90;;;;;;5030979;28;20041;-64
2023/03/03 06:49:28;;;;;;;115.30;50.10;;;0.00;99.90;;;;;;5029549;28;20040;-66
2023/03/03 06:51:55;;;;;;;120.93;52.08;;;0.10;99.90;;;;;;5028675;28;20040;-66
2023/03/03 06:54:26;;;;;;;;;;;0.00;99.90;;;;;;5029706;28;20029;-66
2023/03/03 06:56:56;;;;;;;133.77;46.58;;;0.20;99.90;;;;;;5032317;28;19951;-66
2023/03/03 06:59:21;;;;;;;117.80;46.92;;;0.30;99.90;;;;;;5026778;28;20433;-67
2023/03/03 07:01:49;;;;;;;112.78;47.70;;;0.20;99.90;;;;;;5030399;28;20056;-66
2023/03/03 07:04:28;;;;;;;126.00;49.33;;;0.30;99.90;;;;;;5026862;28;20808;-66
2023/03/03 07:06:55;;;;;;;113.88;46.58;;;0.50;99.90;;;;;;5044013;28;20029;-68
2023/03/03 07:09:29;;;;;;;119.45;50.17;;;0.60;99.90;;;;;;5028078;28;20397;-66
2023/03/03 07:12:18;;;;;;;122.38;48.95;;;0.50;99.90;;;;;;5028095;28;20024;-67
2023/03/03 07:14:54;;;;;;;116.63;46.83;;;0.90;99.90;;;;;;5027438;28;20037;-68
2023/03/03 07:17:22;;;;;;;109.80;46.70;;;1.10;99.90;;;;;;5030481;28;20036;-68
2023/03/03 07:19:48;;;;;;;119.65;47.95;;;1.40;99.90;;;;;;5030369;28;20114;-68
2023/03/03 07:22:27;;;;;;;108.63;44.97;;;1.50;99.90;;;;;;5028372;28;20457;-65
2023/03/03 07:24:56;;;;;;;104.00;45.00;;;1.80;99.90;;;;;;5025802;28;20033;-63
2023/03/03 07:27:30;;;;;;;102.78;45.53;;;2.20;99.90;;;;;;5030644;28;20578;-68
2023/03/03 07:30:26;;;;;;;102.15;43.65;;;2.80;99.90;;;;;;5033649;28;20049;-68
2023/03/03 07:32:55;;;;;;;98.43;43.38;;;2.90;99.90;;;;;;5036253;28;20052;-70
2023/03/03 07:35:23;;;;;;;101.47;45.95;;;3.00;99.90;;;;;;5027648;28;20076;-66
2023/03/03 07:37:49;;;;;;;98.43;40.70;;;2.90;99.90;;;;;;5029423;28;20079;-68
2023/03/03 07:40:33;;;;;;;91.07;44.25;;;3.40;99.90;;;;;;5030509;28;20029;-66
2023/03/03 07:42:58;;;;;;;98.38;44.47;;;3.80;99.90;;;;;;5026369;28;20063;-68
2023/03/03 07:45:35;;;;;;;116.32;44.88;;;4.00;99.90;;;;;;5027993;28;20076;-66
2023/03/03 07:48:11;;;;;;;100.95;44.65;;;4.30;99.90;;;;;;5028862;28;20031;-67
2023/03/03 07:50:39;;;;;;;94.97;41.95;;;4.80;99.80;;;;;;5024522;28;20087;-69
2023/03/03 07:53:20;;;;;;;95.85;42.35;;;4.90;99.10;;;;;;5030232;28;20057;-68
2023/03/03 07:55:45;;;;;;;94.63;43.67;;;5.50;97.50;;;;;;5027819;28;20482;-67
2023/03/03 07:58:15;;;;;;;90.60;43.30;;;5.80;97.70;;;;;;5030130;28;20024;-69
2023/03/03 08:00:40;;;;;;;89.25;42.78;;;6.40;96.60;;;;;;5033154;28;20037;-66
2023/03/03 08:03:15;;;;;;;90.93;42.93;;;6.60;95.40;;;;;;5033384;28;20739;-67
2023/03/03 08:05:43;;;;;;;102.03;45.47;;;6.70;95.80;;;;;;5022803;28;20124;-70
2023/03/03 08:08:08;;;;;;;102.32;47.13;;;6.40;95.70;;;;;;5029930;28;20467;-69
2023/03/03 08:10:48;;;;;;;90.37;43.37;;;6.90;95.60;;;;;;5027336;28;20116;-67
2023/03/03 08:13:18;;;;;;;92.03;43.60;;;7.70;94.80;;;;;;5027453;28;20389;-70
2023/03/03 08:15:47;;;;;;;99.85;44.95;;;7.90;94.10;;;;;;5031653;28;20496;-70
2023/03/03 08:18:42;;;;;;;88.82;42.47;;;8.30;93.40;;;;;;5028927;28;20049;-65
2023/03/03 08:21:14;;;;;;;92.78;47.97;;;8.60;92.20;;;;;;5026451;28;20108;-69
2023/03/03 08:23:40;;;;;;;94.18;47.58;;;8.80;91.90;;;;;;5027667;28;20444;-70
2023/03/03 08:26:07;;;;;;;94.78;45.90;;;8.70;92.10;;;;;;5028891;28;20040;-70
2023/03/03 08:28:32;;;;;;;94.65;44.47;;;8.90;91.90;;;;;;5031767;28;20029;-71
2023/03/03 08:30:58;;;;;;;93.60;44.03;;;9.50;91.70;;;;;;5027419;28;20033;-66
2023/03/03 08:33:23;;;;;;;94.30;44.40;;;9.70;90.70;;;;;;5030674;28;20033;-70
2023/03/03 08:35:49;;;;;;;97.80;45.67;;;9.00;91.50;;;;;;5026014;28;20077;-70
2023/03/03 08:38:18;;;;;;;92.33;44.77;;;9.30;91.60;;;;;;5027597;28;20040;-69
2023/03/03 08:40:44;;;;;;;83.40;43.80;;;9.50;92.30;;;;;;5027652;28;20044;-70
2023/03/03 08:43:15;;;;;;;91.00;45.80;;;9.50;91.40;;;;;;5026810;28;20036;-70
2023/03/03 08:45:44;;;;;;;83.45;42.97;;;9.10;91.90;;;;;;5027927;28;20042;-67
2023/03/03 08:48:11;;;;;;;82.20;44.13;;;8.70;92.20;;;;;;5028449;28;20083;-67
2023/03/03 08:50:37;;;;;;;89.97;46.38;;;8.10;94.10;;;;;;5026098;28;20505;-69
2023/03/03 08:53:04;;;;;;;82.40;44.10;;;8.30;94.20;;;;;;5032848;28;20501;-71
2023/03/03 08:55:29;;;;;;;;;;;8.00;94.30;;;;;;5025586;28;20075;-66
2023/03/03 08:57:55;;;;;;;86.38;42.75;;;8.30;94.30;;;;;;5026218;28;19917;-70
2023/03/03 09:00:21;;;;;;;95.80;45.63;;;8.60;93.90;;;;;;5026131;28;20475;-67
2023/03/03 09:02:49;;;;;;;89.40;44.57;;;8.60;93.50;;;;;;5026547;28;20056;-67
2023/03/03 09:05:14;;;;;;;84.63;42.85;;;8.20;94.20;;;;;;5025135;28;20060;-63
2023/03/03 09:07:41;;;;;;;88.87;42.73;;;7.80;95.00;;;;;;5027920;28;20040;-66
2023/03/03 09:10:07;;;;;;;89.15;45.55;;;7.50;94.90;;;;;;5028414;28;20426;-68
2023/03/03 09:12:42;;;;;;;92.35;43.03;;;7.30;95.50;;;;;;5028886;28;20301;-66
2023/03/03 09:15:27;;;;;;;84.75;42.00;;;7.20;96.40;;;;;;5024760;28;20030;-63
2023/03/03 09:17:56;;;;;;;87.18;42.30;;;7.20;96.00;;;;;;5025920;28;20084;-68
2023/03/03 09:20:47;;;;;;;92.18;44.28;;;7.40;95.20;;;;;;5026593;28;20033;-65
2023/03/03 09:23:35;;;;;;;85.70;41.72;;;7.60;95.50;;;;;;5032242;28;20032;-65
2023/03/03 09:26:26;;;;;;;86.90;42.55;;;8.30;94.90;;;;;;5023259;28;20116;-64
2023/03/03 09:29:14;;;;;;;82.88;43.42;;;10.30;91.50;;;;;;5028947;28;20041;-65
2023/03/03 09:31:54;;;;;;;88.90;43.42;;;10.80;89.70;;;;;;5029211;28;20091;-67
2023/03/03 09:34:35;;;;;;;79.38;42.80;;;12.10;84.40;;;;;;5022632;28;20030;-68
2023/03/03 09:37:13;;;;;;;82.13;42.20;;;12.80;81.40;;;;;;5030314;28;20033;-65
2023/03/03 09:39:39;;;;;;;77.63;40.22;;;13.90;77.80;;;;;;5030022;28;20056;-64
2023/03/03 09:42:53;;;;;;;78.65;42.60;;;13.80;74.70;;;;;;5031008;28;20029;-67
2023/03/03 09:45:36;;;;;;;83.30;41.17;;;14.40;74.50;;;;;;5009616;28;20056;-68
2023/03/03 09:48:28;;;;;;;71.57;40.55;;;14.30;71.30;;;;;;5025801;28;20036;-69
2023/03/03 09:51:17;;;;;;;87.35;42.67;;;13.50;75.40;;;;;;5025894;28;20107;-65
2023/03/03 09:54:31;;;;;;;77.25;41.13;;;12.50;76.40;;;;;;5028646;28;20030;-67
2023/03/03 09:57:13;;;;;;;74.22;41.42;;;12.00;77.80;;;;;;5017515;28;20348;-68
2023/03/03 09:59:57;;;;;;;78.90;42.17;;;11.70;81.20;;;;;;5027515;28;20030;-68
2023/03/03 10:02:41;;;;;;;75.35;42.92;;;12.20;81.60;;;;;;5026523;28;20029;-64
2023/03/03 10:05:38;;;;;;;81.07;42.83;;;13.50;78.30;;;;;;5027653;28;20045;-67
2023/03/03 10:08:41;;;;;;;74.60;41.55;;;14.30;74.40;;;;;;5037656;28;20119;-67
2023/03/03 10:11:17;;;;;;;78.25;40.65;;;13.70;75.60;;;;;;5023329;28;20585;-68
2023/03/03 10:13:43;;;;;;;74.82;43.72;;;13.70;73.30;;;;;;5026778;28;20040;-69
2023/03/03 10:16:12;;;;;;;75.33;41.80;;;13.30;74.40;;;;;;5029171;28;20033;-69
2023/03/03 10:19:15;;;;;;;75.82;42.88;;;12.90;78.50;;;;;;5028000;28;20025;-68
2023/03/03 10:21:48;;;;;;;75.85;43.85;;;12.00;79.90;;;;;;5027725;28;20029;-69
2023/03/03 10:24:27;;;;;;;77.75;42.33;;;12.00;82.60;;;;;;5030775;28;20493;-62
2023/03/03 10:26:59;;;;;;;75.95;42.72;;;11.30;84.20;;;;;;5029423;28;20520;-68
2023/03/03 10:29:40;;;;;;;79.32;42.78;;;11.20;84.10;;;;;;5027620;28;20040;-69
2023/03/03 10:32:33;;;;;;;83.43;42.42;;;10.90;85.20;;;;;;5027344;28;20509;-69
2023/03/03 10:35:22;;;;;;;83.65;43.33;;;11.60;84.50;;;;;;5028472;28;20052;-65
2023/03/03 10:38:17;;;;;;;78.97;42.97;;;10.80;86.20;;;;;;5027250;28;20116;-65
2023/03/03 10:41:10;;;;;;;74.03;41.53;;;10.50;88.20;;;;;;5027635;28;20079;-68
2023/03/03 10:43:52;;;;;;;71.80;41.22;;;10.30;89.10;;;;;;5026581;28;20116;-65
2023/03/03 10:46:39;;;;;;;79.45;41.95;;;10.40;88.50;;;;;;5026833;28;20037;-70
2023/03/03 10:49:20;;;;;;;77.53;42.42;;;10.80;89.90;;;;;;5026895;28;20111;-64
2023/03/03 10:52:30;;;;;;;76.68;41.75;;;10.70;87.90;;;;;;5024996;28;20046;-66
2023/03/03 10:55:07;;;;;;;82.55;43.92;;;10.70;88.60;;;;;;5023473;28;20062;-67
2023/03/03 10:57:52;;;;;;;72.85;39.28;;;10.80;89.00;;;;;;5025892;28;20029;-66
2023/03/03 11:00:39;;;;;;;75.47;42.55;;;10.70;87.50;;;;;;5025822;28;20034;-67
2023/03/03 11:03:07;;;;;;;80.25;43.17;;;11.10;87.50;;;;;;5026610;28;20099;-62
2023/03/03 11:05:46;;;;;;;76.40;40.60;;;11.30;87.40;;;;;;5026233;28;20041;-64
2023/03/03 11:08:36;;;;;;;75.45;40.75;;;11.10;87.90;;;;;;5027249;28;20038;-62
2023/03/03 11:11:11;;;;;;;79.70;40.88;;;10.90;87.00;;;;;;5026994;28;20075;-62
2023/03/03 11:14:11;;;;;;;73.30;38.42;;;10.90;86.30;;;;;;5027038;28;20453;-68
2023/03/03 11:16:46;;;;;;;67.78;37.80;;;10.90;87.20;;;;;;5025208;28;20040;-64
2023/03/03 11:19:20;;;;;;;69.85;37.25;;;10.70;88.90;;;;;;5026183;28;20033;-64
2023/03/03 11:22:02;;;;;;;73.88;38.70;;;10.60;88.90;;;;;;5027199;28;20033;-65
2023/03/03 11:25:07;;;;;;;66.65;36.50;;;10.80;88.70;;;;;;5026654;28;20087;-65
2023/03/03 11:27:36;;;;;;;69.28;38.67;;;10.60;88.30;;;;;;5025977;28;20033;-61
2023/03/03 11:30:33;;;;;;;67.47;38.28;;;10.50;89.20;;;;;;5023148;28;20103;-66
2023/03/03 11:33:04;;;;;;;70.53;37.92;;;10.50;88.80;;;;;;5021118;28;20073;-65
2023/03/03 11:35:48;;;;;;;65.90;36.67;;;10.30;90.40;;;;;;5024714;28;20025;-61
2023/03/03 11:38:41;;;;;;;68.72;38.92;;;10.10;90.30;;;;;;5022577;28;20584;-63
2023/03/03 11:41:29;;;;;;;69.20;36.65;;;10.00;90.10;;;;;;5021304;28;20033;-60
2023/03/03 11:44:07;;;;;;;67.93;38.10;;;9.90;90.70;;;;;;5021367;28;20029;-61
2023/03/03 11:46:47;;;;;;;67.90;36.90;;;9.90;90.10;;;;;;5022503;28;20098;-63
2023/03/03 11:49:14;;;;;;;77.70;38.30;;;9.90;90.90;;;;;;5024895;28;20054;-62
2023/03/03 11:51:42;;;;;;;66.70;37.60;;;9.90;90.50;;;;;;5024084;28;20053;-63
2023/03/03 11:54:41;;;;;;;72.03;37.70;;;9.60;90.80;;;;;;5023965;28;20025;-66
2023/03/03 11:57:28;;;;;;;66.70;37.45;;;9.40;91.20;;;;;;5022810;28;20033;-63
2023/03/03 12:00:14;;;;;;;73.88;37.63;;;9.40;90.60;;;;;;5024533;28;20041;-66
2023/03/03 12:03:05;;;;;;;72.75;38.45;;;9.50;91.10;;;;;;5022629;28;20120;-67
2023/03/03 12:05:54;;;;;;;67.25;35.97;;;9.50;91.10;;;;;;5025906;28;20045;-65
2023/03/03 12:08:56;;;;;;;68.05;36.70;;;9.60;90.90;;;;;;5024716;28;20071;-65
2023/03/03 12:11:35;;;;;;;69.32;37.00;;;9.60;91.20;;;;;;5023986;28;20018;-69
2023/03/03 12:14:19;;;;;;;71.25;36.72;;;9.40;90.30;;;;;;5026729;28;20052;-63
2023/03/03 12:17:04;;;;;;;69.80;36.03;;;9.40;91.40;;;;;;5027261;28;20044;-68
2023/03/03 12:19:34;;;;;;;68.13;36.88;;;9.50;91.10;;;;;;5027166;28;20032;-68
2023/03/03 12:22:18;;;;;;;70.25;38.90;;;9.40;91.50;;;;;;5026464;28;20037;-67
2023/03/03 12:25:02;;;;;;;68.22;35.90;;;9.30;91.60;;;;;;5026194;28;20025;-69
2023/03/03 12:27:33;;;;;;;68.68;36.30;;;9.40;90.80;;;;;;5025781;28;20037;-67
2023/03/03 12:30:05;;;;;;;71.05;36.22;;;9.30;90.30;;;;;;5025159;28;20053;-69
2023/03/03 12:32:57;;;;;;;90.80;43.88;;;9.40;90.70;;;;;;5025867;28;20262;-68
2023/03/03 12:35:25;;;;;;;98.00;44.08;;;9.50;90.60;;;;;;5026111;28;20029;-66
2023/03/03 12:38:02;;;;;;;70.75;36.08;;;9.40;90.80;;;;;;5026406;28;20680;-69
2023/03/03 12:40:33;;;;;;;65.32;36.03;;;9.50;91.10;;;;;;5025521;28;20029;-61
2023/03/03 12:43:32;;;;;;;66.28;35.28;;;9.40;90.60;;;;;;5025052;28;20512;-66
2023/03/03 12:46:16;;;;;;;84.65;37.40;;;9.50;91.00;;;;;;5022963;28;20849;-64
2023/03/03 12:48:43;;;;;;;75.60;38.35;;;9.50;91.00;;;;;;5026176;28;20454;-66
2023/03/03 12:51:14;;;;;;;74.63;36.65;;;9.50;90.50;;;;;;5025157;28;20040;-68
2023/03/03 12:53:52;;;;;;;68.50;36.15;;;9.60;90.60;;;;;;5025909;28;20044;-70
2023/03/03 12:56:29;;;;;;;75.28;41.90;;;9.60;90.90;;;;;;5024870;28;20029;-63
2023/03/03 12:59:27;;;;;;;69.10;37.45;;;9.90;91.00;;;;;;5024898;28;20120;-69
2023/03/03 13:02:07;;;;;;;86.82;42.40;;;9.80;90.70;;;;;;5024668;28;20071;-70
2023/03/03 13:04:35;;;;;;;96.80;46.00;;;9.60;90.40;;;;;;5025325;28;20821;-66
2023/03/03 13:07:26;;;;;;;73.90;38.38;;;9.60;90.70;;;;;;5024300;28;20052;-67
2023/03/03 13:10:04;;;;;;;78.72;41.78;;;9.40;90.70;;;;;;5024926;28;20025;-64